createdAt,value
2022-09-21T00:01:52.685Z,93.41
2022-09-21T00:04:24.072Z,93.34
2022-09-21T00:06:58.801Z,93.99
2022-09-21T00:09:27.701Z,94.06
2022-09-21T00:12:00.099Z,94.16
2022-09-21T00:14:28.960Z,93.40
2022-09-21T00:17:04.439Z,93.77
2022-09-21T00:19:35.877Z,93.76
2022-09-21T00:22:08.429Z,93.87
2022-09-21T00:24:38.610Z,93.83
2022-09-21T00:27:09.973Z,94.49
2022-09-21T00:29:42.654Z,94.28
2022-09-21T00:32:13.778Z,94.07
2022-09-21T00:34:42.381Z,94.12
2022-09-21T00:37:13.627Z,94.58
2022-09-21T00:39:42.236Z,94.90
2022-09-21T00:42:11.757Z,94.83
2022-09-21T00:44:47.156Z,95.16
2022-09-21T00:47:23.303Z,94.12
2022-09-21T00:49:54.644Z,95.14
2022-09-21T00:52:25.519Z,95.06
2022-09-21T00:54:57.522Z,95.12
2022-09-21T00:57:28.333Z,94.87
2022-09-21T01:00:00.054Z,95.01
2022-09-21T01:02:28.441Z,95.33
2022-09-21T01:04:58.164Z,95.40
2022-09-21T01:07:30.935Z,95.27
2022-09-21T01:10:09.347Z,95.04
2022-09-21T01:12:56.990Z,95.26
2022-09-21T01:15:36.056Z,95.16
2022-09-21T01:18:13.810Z,95.54
2022-09-21T01:20:59.058Z,95.59
2022-09-21T01:24:14.584Z,95.65
2022-09-21T01:27:06.712Z,96.12
2022-09-21T01:29:43.408Z,95.73
2022-09-21T01:32:15.548Z,95.67
2022-09-21T01:34:49.020Z,95.84
2022-09-21T01:37:23.919Z,95.47
2022-09-21T01:39:56.832Z,95.85
2022-09-21T01:42:27.773Z,96.42
2022-09-21T01:45:01.427Z,96.06
2022-09-21T01:47:31.830Z,96.01
2022-09-21T01:50:03.799Z,96.85
2022-09-21T01:52:37.945Z,96.53
2022-09-21T01:55:10.626Z,96.46
2022-09-21T01:57:44.478Z,96.89
2022-09-21T02:00:16.160Z,96.22
2022-09-21T02:02:50.638Z,96.92
2022-09-21T02:05:21.686Z,97.16
2022-09-21T02:07:51.387Z,96.86
2022-09-21T02:10:25.805Z,97.48
2022-09-21T02:12:56.902Z,97.42
2022-09-21T02:15:33.193Z,97.16
2022-09-21T02:18:07.508Z,97.71
2022-09-21T02:20:40.874Z,97.39
2022-09-21T02:23:19.127Z,97.38
2022-09-21T02:25:53.894Z,97.29
2022-09-21T02:28:32.331Z,96.77
2022-09-21T02:31:14.422Z,97.01
2022-09-21T02:33:49.421Z,96.56
2022-09-21T02:36:23.395Z,96.39
2022-09-21T02:38:58.004Z,96.54
2022-09-21T02:41:32.226Z,96.26
2022-09-21T02:44:04.204Z,96.68
2022-09-21T02:46:37.044Z,96.04
2022-09-21T02:49:09.248Z,95.76
2022-09-21T02:51:41.904Z,95.81
2022-09-21T02:54:14.190Z,95.79
2022-09-21T02:56:44.411Z,95.61
2022-09-21T02:59:12.424Z,95.73
2022-09-21T03:01:42.459Z,95.59
2022-09-21T03:04:11.172Z,95.55
2022-09-21T03:06:39.068Z,95.46
2022-09-21T03:09:06.974Z,95.57
2022-09-21T03:11:36.269Z,95.48
2022-09-21T03:14:07.177Z,95.55
2022-09-21T03:16:35.197Z,94.73
2022-09-21T03:19:06.420Z,94.54
2022-09-21T03:21:34.380Z,94.81
2022-09-21T03:24:02.603Z,94.55
2022-09-21T03:26:30.723Z,94.30
2022-09-21T03:28:58.545Z,94.36
2022-09-21T03:31:26.624Z,94.40
2022-09-21T03:33:54.957Z,94.25
2022-09-21T03:36:24.281Z,94.18
2022-09-21T03:38:52.178Z,94.04
2022-09-21T03:41:20.317Z,94.45
2022-09-21T03:43:48.128Z,94.44
2022-09-21T03:46:17.326Z,93.91
2022-09-21T03:48:47.683Z,94.16
2022-09-21T03:51:15.616Z,93.95
2022-09-21T03:53:44.848Z,94.40
2022-09-21T03:56:12.883Z,93.42
2022-09-21T03:58:41.824Z,93.98
2022-09-21T04:01:09.896Z,93.98
2022-09-21T04:03:38.409Z,93.91
2022-09-21T04:06:10.239Z,94.05
2022-09-21T04:08:38.146Z,93.72
2022-09-21T04:11:12.525Z,94.28
2022-09-21T04:13:42.570Z,93.66
2022-09-21T04:16:11.264Z,93.73
2022-09-21T04:18:39.764Z,94.29
2022-09-21T04:21:07.759Z,93.84
2022-09-21T04:23:35.751Z,93.53
2022-09-21T04:26:04.001Z,93.05
2022-09-21T04:28:33.843Z,93.69
2022-09-21T04:31:01.911Z,94.00
2022-09-21T04:33:29.815Z,93.76
2022-09-21T04:35:57.725Z,93.76
2022-09-21T04:38:25.706Z,93.16
2022-09-21T04:40:57.628Z,93.68
2022-09-21T04:43:26.004Z,93.78
2022-09-21T04:45:55.313Z,93.37
2022-09-21T04:48:23.367Z,93.82
2022-09-21T04:50:51.545Z,93.98
2022-09-21T04:53:19.436Z,94.09
2022-09-21T04:55:47.477Z,94.34
2022-09-21T04:58:15.388Z,93.82
2022-09-21T05:00:44.067Z,94.55
2022-09-21T05:03:13.871Z,94.91
2022-09-21T05:05:47.811Z,95.35
2022-09-21T05:08:15.889Z,94.97
2022-09-21T05:10:44.818Z,95.82
2022-09-21T05:13:14.734Z,95.53
2022-09-21T05:15:46.052Z,95.52
2022-09-21T05:18:15.337Z,95.46
2022-09-21T05:20:43.192Z,95.36
2022-09-21T05:23:14.851Z,95.54
2022-09-21T05:25:45.081Z,96.05
2022-09-21T05:28:13.704Z,95.55
2022-09-21T05:30:51.554Z,96.02
2022-09-21T05:33:35.303Z,95.88
2022-09-21T05:36:12.845Z,96.45
2022-09-21T05:38:41.570Z,96.45
2022-09-21T05:41:10.295Z,96.65
2022-09-21T05:43:38.784Z,96.56
2022-09-21T05:46:19.610Z,96.35
2022-09-21T05:48:58.167Z,97.00
2022-09-21T05:51:42.062Z,96.49
2022-09-21T05:54:16.623Z,96.19
2022-09-21T05:56:52.573Z,96.81
2022-09-21T05:59:41.455Z,96.79
2022-09-21T06:02:21.314Z,96.98
2022-09-21T06:04:54.348Z,97.30
2022-09-21T06:07:27.742Z,96.89
2022-09-21T06:09:59.118Z,97.40
2022-09-21T06:12:27.525Z,97.05
2022-09-21T06:14:56.575Z,97.61
2022-09-21T06:17:27.342Z,97.11
2022-09-21T06:19:56.815Z,97.18
2022-09-21T06:22:24.726Z,97.27
2022-09-21T06:24:52.563Z,96.65
2022-09-21T06:27:20.580Z,96.62
2022-09-21T06:29:48.404Z,96.13
2022-09-21T06:32:16.290Z,96.13
2022-09-21T06:34:45.000Z,97.58
2022-09-21T06:37:14.323Z,97.14
2022-09-21T06:39:42.241Z,95.90
2022-09-21T06:42:10.276Z,93.32
2022-09-21T06:44:38.221Z,89.90
2022-09-21T06:47:06.459Z,88.17
2022-09-21T06:49:35.202Z,88.22
2022-09-21T06:52:05.074Z,87.80
2022-09-21T06:54:34.504Z,86.95
2022-09-21T06:57:03.376Z,85.38
2022-09-21T06:59:31.236Z,83.34
2022-09-21T07:01:59.800Z,80.99
2022-09-21T07:04:29.542Z,79.13
2022-09-21T07:06:57.751Z,78.30
2022-09-21T07:12:16.388Z,76.29
2022-09-21T07:14:46.350Z,75.83
2022-09-21T07:17:16.065Z,74.71
2022-09-21T07:19:44.293Z,75.48
2022-09-21T07:22:12.145Z,74.66
2022-09-21T07:24:40.226Z,73.20
2022-09-21T07:27:08.268Z,72.12
2022-09-21T07:29:37.517Z,70.35
2022-09-21T07:32:05.855Z,70.26
2022-09-21T07:34:37.028Z,68.05
2022-09-21T07:37:04.953Z,66.95
2022-09-21T07:39:32.835Z,66.17
2022-09-21T07:42:00.979Z,65.67
2022-09-21T07:44:28.987Z,64.60
2022-09-21T07:46:58.170Z,64.43
2022-09-21T07:49:26.133Z,63.99
2022-09-21T07:51:54.600Z,63.14
2022-09-21T07:54:22.457Z,61.91
2022-09-21T07:57:04.324Z,61.62
2022-09-21T07:59:33.342Z,60.43
2022-09-21T08:02:02.673Z,59.33
2022-09-21T08:04:30.715Z,58.25
2022-09-21T08:06:58.598Z,57.53
2022-09-21T08:09:26.479Z,57.22
2022-09-21T08:11:54.601Z,55.74
2022-09-21T08:14:26.324Z,54.25
2022-09-21T08:16:54.820Z,52.84
2022-09-21T08:19:26.755Z,51.80
2022-09-21T08:21:57.540Z,51.49
2022-09-21T08:24:27.081Z,50.26
2022-09-21T08:26:56.035Z,49.82
2022-09-21T08:29:24.717Z,49.04
2022-09-21T08:31:53.454Z,48.13
2022-09-21T08:34:21.617Z,47.69
2022-09-21T08:36:55.217Z,47.06
2022-09-21T08:39:24.055Z,46.65
2022-09-21T08:42:22.953Z,45.78
2022-09-21T08:44:57.449Z,46.43
2022-09-21T08:47:36.445Z,46.29
2022-09-21T08:50:07.174Z,45.92
2022-09-21T08:52:39.388Z,44.91
2022-09-21T08:55:17.594Z,44.48
2022-09-21T08:57:45.766Z,44.11
2022-09-21T09:00:16.863Z,43.47
2022-09-21T09:03:03.886Z,42.79
2022-09-21T09:05:48.143Z,42.23
2022-09-21T09:08:49.660Z,42.50
2022-09-21T09:11:40.701Z,42.21
2022-09-21T09:14:33.524Z,41.63
2022-09-21T09:17:20.892Z,41.01
2022-09-21T09:19:56.479Z,41.58
2022-09-21T09:22:29.026Z,41.31
2022-09-21T09:25:01.755Z,41.04
2022-09-21T09:27:35.098Z,41.51
2022-09-21T09:30:05.959Z,41.20
2022-09-21T09:32:44.042Z,40.83
2022-09-21T09:35:20.537Z,41.19
2022-09-21T09:37:50.646Z,41.29
2022-09-21T09:40:31.858Z,41.37
2022-09-21T09:43:07.016Z,41.29
2022-09-21T09:45:50.225Z,41.54
2022-09-21T09:48:32.640Z,40.89
2022-09-21T09:51:00.488Z,41.37
2022-09-21T09:53:28.885Z,40.87
2022-09-21T09:56:00.517Z,40.24
2022-09-21T09:58:38.970Z,39.08
2022-09-21T10:01:07.426Z,39.40
2022-09-21T10:03:35.977Z,39.88
2022-09-21T10:06:03.983Z,39.66
2022-09-21T10:08:43.168Z,39.10
2022-09-21T10:11:15.101Z,38.89
2022-09-21T10:13:44.706Z,39.13
2022-09-21T10:16:20.404Z,38.29
2022-09-21T10:18:51.607Z,38.02
2022-09-21T10:21:22.883Z,38.22
2022-09-21T10:23:53.958Z,37.40
2022-09-21T10:26:23.700Z,36.97
2022-09-21T10:28:58.239Z,36.79
2022-09-21T10:31:27.803Z,36.92
2022-09-21T10:34:08.704Z,35.91
2022-09-21T10:36:38.864Z,36.26
2022-09-21T10:39:30.836Z,35.88
2022-09-21T10:42:04.192Z,35.54
2022-09-21T10:44:40.218Z,34.69
2022-09-21T10:47:20.409Z,34.39
2022-09-21T10:49:51.545Z,34.90
2022-09-21T10:52:22.044Z,34.11
2022-09-21T10:54:52.946Z,33.59
2022-09-21T10:57:25.859Z,33.63
2022-09-21T10:59:53.955Z,33.74
2022-09-21T11:02:36.293Z,32.51
2022-09-21T11:05:11.167Z,32.73
2022-09-21T11:07:46.609Z,31.81
2022-09-21T11:10:22.494Z,32.41
2022-09-21T11:13:00.112Z,31.79
2022-09-21T11:15:43.245Z,31.65
2022-09-21T11:18:20.073Z,31.90
2022-09-21T11:20:51.940Z,32.20
2022-09-21T11:23:34.632Z,31.65
2022-09-21T11:26:11.729Z,31.55
2022-09-21T11:28:46.496Z,31.18
2022-09-21T11:31:40.601Z,30.89
2022-09-21T11:34:39.509Z,30.61
2022-09-21T11:37:20.238Z,30.87
2022-09-21T11:40:02.263Z,31.19
2022-09-21T11:42:47.366Z,30.78
2022-09-21T11:45:34.265Z,31.03
2022-09-21T11:48:13.620Z,30.97
2022-09-21T11:53:42.694Z,30.62
2022-09-21T11:56:38.966Z,30.42
2022-09-21T11:59:25.882Z,30.48
2022-09-21T12:02:15.718Z,30.68
2022-09-21T12:04:50.865Z,31.53
2022-09-21T12:07:32.473Z,32.46
2022-09-21T12:10:19.629Z,32.25
2022-09-21T12:12:54.386Z,31.05
2022-09-21T12:15:29.726Z,30.43
2022-09-21T12:18:07.235Z,29.94
2022-09-21T12:20:49.920Z,29.80
2022-09-21T12:23:23.081Z,29.46
2022-09-21T12:25:57.372Z,29.14
2022-09-21T12:28:28.913Z,28.87
2022-09-21T12:31:01.063Z,28.20
2022-09-21T12:33:40.466Z,29.13
2022-09-21T12:36:14.922Z,28.78
2022-09-21T12:38:51.153Z,28.51
2022-09-21T12:41:34.570Z,28.17
2022-09-21T12:44:13.677Z,28.19
2022-09-21T12:46:50.366Z,28.06
2022-09-21T12:49:28.316Z,27.62
2022-09-21T12:52:00.548Z,26.87
2022-09-21T12:54:38.073Z,27.20
2022-09-21T12:57:38.134Z,26.68
2022-09-21T13:00:07.064Z,26.24
2022-09-21T13:05:27.642Z,26.74
2022-09-21T13:08:06.431Z,26.50
2022-09-21T13:10:51.686Z,26.33
2022-09-21T13:13:30.311Z,26.25
2022-09-21T13:16:00.110Z,25.56
2022-09-21T13:18:35.785Z,24.88
2022-09-21T13:21:18.790Z,24.28
2022-09-21T13:23:54.964Z,24.34
2022-09-21T13:26:33.410Z,24.11
2022-09-21T13:29:06.326Z,23.69
2022-09-21T13:31:57.439Z,23.08
2022-09-21T13:34:31.369Z,23.71
2022-09-21T13:37:34.094Z,23.77
2022-09-21T13:40:38.947Z,23.35
2022-09-21T13:43:46.908Z,23.78
2022-09-21T13:47:01.772Z,23.55
2022-09-21T13:49:40.786Z,23.89
2022-09-21T13:52:25.530Z,23.29
2022-09-21T13:54:56.523Z,22.83
2022-09-21T13:57:31.150Z,22.97
2022-09-21T14:00:30.844Z,23.07
2022-09-21T14:03:04.559Z,23.33
2022-09-21T14:05:37.001Z,22.84
2022-09-21T14:08:20.040Z,23.10
2022-09-21T14:10:55.078Z,22.62
2022-09-21T14:13:35.078Z,22.57
2022-09-21T14:16:41.985Z,22.63
2022-09-21T14:20:05.309Z,22.74
2022-09-21T14:22:44.188Z,23.60
2022-09-21T14:25:54.592Z,23.00
2022-09-21T14:28:35.266Z,22.67
2022-09-21T14:31:07.985Z,22.74
2022-09-21T14:33:45.986Z,22.59
2022-09-21T14:36:21.382Z,22.05
2022-09-21T14:38:54.909Z,22.42
2022-09-21T14:41:27.576Z,22.42
2022-09-21T14:43:56.868Z,22.41
2022-09-21T14:46:48.114Z,22.93
2022-09-21T14:50:01.790Z,22.99
2022-09-21T14:52:47.873Z,24.47
2022-09-21T14:55:23.867Z,25.97
2022-09-21T14:58:09.157Z,27.89
2022-09-21T15:00:40.176Z,28.70
2022-09-21T15:03:45.653Z,30.22
2022-09-21T15:06:40.870Z,31.94
2022-09-21T15:09:46.396Z,32.63
2022-09-21T15:12:19.260Z,33.61
2022-09-21T15:14:57.632Z,34.49
2022-09-21T15:17:27.220Z,34.92
2022-09-21T15:19:59.529Z,35.66
2022-09-21T15:22:28.202Z,35.93
2022-09-21T15:24:58.140Z,36.50
2022-09-21T15:27:33.831Z,37.18
2022-09-21T15:30:06.111Z,37.95
2022-09-21T15:32:39.101Z,38.87
2022-09-21T15:35:17.800Z,39.38
2022-09-21T15:37:47.433Z,40.11
2022-09-21T15:40:21.872Z,41.19
2022-09-21T15:43:01.758Z,41.59
2022-09-21T15:45:34.652Z,41.44
2022-09-21T15:48:04.706Z,41.73
2022-09-21T15:50:33.390Z,41.67
2022-09-21T15:53:07.094Z,41.83
2022-09-21T15:55:35.191Z,41.94
2022-09-21T15:58:04.406Z,42.88
2022-09-21T16:00:37.063Z,43.32
2022-09-21T16:03:08.276Z,43.34
2022-09-21T16:05:48.084Z,44.45
2022-09-21T16:08:27.641Z,45.63
2022-09-21T16:11:12.969Z,47.34
2022-09-21T16:13:59.271Z,47.57
2022-09-21T16:16:29.011Z,48.40
2022-09-21T16:19:00.132Z,49.30
2022-09-21T16:21:32.661Z,50.35
2022-09-21T16:24:12.467Z,51.90
2022-09-21T16:26:42.367Z,52.17
2022-09-21T16:29:23.620Z,53.87
2022-09-21T16:32:14.460Z,53.93
2022-09-21T16:34:42.560Z,54.03
2022-09-21T16:37:29.879Z,55.98
2022-09-21T16:40:00.042Z,55.54
2022-09-21T16:42:31.353Z,56.13
2022-09-21T16:44:59.673Z,56.64
2022-09-21T16:47:29.360Z,57.39
2022-09-21T16:50:01.705Z,57.81
2022-09-21T16:52:31.418Z,58.24
2022-09-21T16:54:59.251Z,58.78
2022-09-21T16:57:27.973Z,59.50
2022-09-21T16:59:56.177Z,59.97
2022-09-21T17:02:24.158Z,60.06
2022-09-21T17:04:53.483Z,60.95
2022-09-21T17:07:21.557Z,61.08
2022-09-21T17:09:49.964Z,61.83
2022-09-21T17:12:19.602Z,61.91
2022-09-21T17:14:47.741Z,62.52
2022-09-21T17:17:19.103Z,62.86
2022-09-21T17:19:49.960Z,63.14
2022-09-21T17:22:20.214Z,63.20
2022-09-21T17:24:51.720Z,63.43
2022-09-21T17:27:26.894Z,63.91
2022-09-21T17:29:55.413Z,64.10
2022-09-21T17:32:25.657Z,65.01
2022-09-21T17:34:58.883Z,65.07
2022-09-21T17:37:28.982Z,65.45
2022-09-21T17:39:56.828Z,65.81
2022-09-21T17:42:26.125Z,66.36
2022-09-21T17:45:13.002Z,67.19
2022-09-21T17:47:41.869Z,66.80
2022-09-21T17:50:20.196Z,67.52
2022-09-21T17:53:07.566Z,67.28
2022-09-21T17:55:36.149Z,67.48
2022-09-21T17:58:14.588Z,68.34
2022-09-21T18:00:50.445Z,68.25
2022-09-21T18:03:23.085Z,68.70
2022-09-21T18:05:52.972Z,68.56
2022-09-21T18:08:22.826Z,69.31
2022-09-21T18:11:02.502Z,69.47
2022-09-21T18:13:42.441Z,70.11
2022-09-21T18:16:23.262Z,70.04
2022-09-21T18:19:00.159Z,70.60
2022-09-21T18:21:28.686Z,70.58
2022-09-21T18:24:20.421Z,71.70
2022-09-21T18:26:49.247Z,71.04
2022-09-21T18:29:46.512Z,71.83
2022-09-21T18:32:30.791Z,71.88
2022-09-21T18:35:22.953Z,72.03
2022-09-21T18:38:15.522Z,71.96
2022-09-21T18:40:59.353Z,72.37
2022-09-21T18:43:34.761Z,72.05
2022-09-21T18:46:06.594Z,72.51
2022-09-21T18:48:51.837Z,72.97
2022-09-21T18:51:25.058Z,73.04
2022-09-21T18:53:56.220Z,72.54
2022-09-21T18:56:27.627Z,73.42
2022-09-21T18:58:58.186Z,73.55
2022-09-21T19:01:29.485Z,73.69
2022-09-21T19:03:58.113Z,73.80
2022-09-21T19:06:53.031Z,74.53
2022-09-21T19:09:31.424Z,74.40
2022-09-21T19:12:08.095Z,74.41
2022-09-21T19:14:45.749Z,74.76
2022-09-21T19:17:31.326Z,75.27
2022-09-21T19:20:12.504Z,75.26
2022-09-21T19:22:48.449Z,75.50
2022-09-21T19:25:23.826Z,75.82
2022-09-21T19:28:00.066Z,76.32
2022-09-21T19:30:29.918Z,76.39
2022-09-21T19:33:00.735Z,76.33
2022-09-21T19:35:30.397Z,76.39
2022-09-21T19:38:00.148Z,76.63
2022-09-21T19:40:30.158Z,76.93
2022-09-21T19:43:22.167Z,77.80
2022-09-21T19:46:05.563Z,77.78
2022-09-21T19:48:42.817Z,77.82
2022-09-21T19:51:17.958Z,77.77
2022-09-21T19:54:03.935Z,77.93
2022-09-21T19:56:55.428Z,78.07
2022-09-21T19:59:44.005Z,78.19
2022-09-21T20:02:18.203Z,78.72
2022-09-21T20:04:55.784Z,78.82
2022-09-21T20:07:34.577Z,78.96
2022-09-21T20:10:25.387Z,79.61
2022-09-21T20:13:05.249Z,79.39
2022-09-21T20:15:48.468Z,79.87
2022-09-21T20:18:27.744Z,79.71
2022-09-21T20:20:57.662Z,79.73
2022-09-21T20:23:30.481Z,80.01
2022-09-21T20:26:09.394Z,80.54
2022-09-21T20:28:40.362Z,80.34
2022-09-21T20:31:13.581Z,80.78
2022-09-21T20:33:43.544Z,80.94
2022-09-21T20:36:13.718Z,81.05
2022-09-21T20:38:43.556Z,81.29
2022-09-21T20:41:16.790Z,81.45
2022-09-21T20:43:45.300Z,81.48
2022-09-21T20:46:14.619Z,82.10
2022-09-21T20:48:43.662Z,82.00
2022-09-21T20:51:12.232Z,82.33
2022-09-21T20:53:41.447Z,82.52
2022-09-21T20:56:09.426Z,82.70
2022-09-21T20:58:37.297Z,82.96
2022-09-21T21:01:06.433Z,83.22
2022-09-21T21:03:35.843Z,83.39
2022-09-21T21:06:11.622Z,84.20
2022-09-21T21:08:39.719Z,83.93
2022-09-21T21:11:08.072Z,84.11
2022-09-21T21:13:35.979Z,84.48
2022-09-21T21:16:08.268Z,84.65
2022-09-21T21:18:41.471Z,84.76
2022-09-21T21:21:09.985Z,84.80
2022-09-21T21:23:57.889Z,84.96
2022-09-21T21:26:38.487Z,84.88
2022-09-21T21:29:13.838Z,85.03
2022-09-21T21:31:42.420Z,85.07
2022-09-21T21:34:11.642Z,85.33
2022-09-21T21:36:39.999Z,85.39
2022-09-21T21:39:08.470Z,85.37
2022-09-21T21:41:36.320Z,85.45
2022-09-21T21:44:04.157Z,85.75
2022-09-21T21:46:32.487Z,85.90
2022-09-21T21:49:00.490Z,86.12
2022-09-21T21:51:30.079Z,86.48
2022-09-21T21:53:58.174Z,86.43
2022-09-21T21:56:26.616Z,86.78
2022-09-21T21:58:55.713Z,86.59
2022-09-21T22:01:26.852Z,87.01
2022-09-21T22:03:57.221Z,87.08
2022-09-21T22:06:25.326Z,87.29
2022-09-21T22:08:56.099Z,87.59
2022-09-21T22:11:25.168Z,87.35
2022-09-21T22:13:55.031Z,87.89
2022-09-21T22:16:25.168Z,87.95
2022-09-21T22:18:54.243Z,88.04
2022-09-21T22:21:25.324Z,88.43
2022-09-21T22:23:56.271Z,88.45
2022-09-21T22:26:25.041Z,88.34
2022-09-21T22:28:56.541Z,88.52
2022-09-21T22:31:27.464Z,88.79
2022-09-21T22:33:57.668Z,88.71
2022-09-21T22:36:27.462Z,88.90
2022-09-21T22:38:57.429Z,89.50
2022-09-21T22:41:27.715Z,89.01
2022-09-21T22:43:57.036Z,89.27
2022-09-21T22:46:26.673Z,89.12
2022-09-21T22:48:55.120Z,89.30
2022-09-21T22:51:23.977Z,89.50
2022-09-21T22:53:52.486Z,89.82
2022-09-21T22:56:23.425Z,89.83
2022-09-21T22:58:52.652Z,90.10
2022-09-21T23:01:25.685Z,90.38
2022-09-21T23:03:55.115Z,90.32
2022-09-21T23:06:26.393Z,90.88
2022-09-21T23:08:56.247Z,90.27
2022-09-21T23:11:27.744Z,90.71
2022-09-21T23:13:56.305Z,90.35
2022-09-21T23:16:25.898Z,90.94
2022-09-21T23:18:54.296Z,91.03
2022-09-21T23:21:23.704Z,90.95
2022-09-21T23:23:55.641Z,90.93
2022-09-21T23:26:26.210Z,90.99
2022-09-21T23:28:55.979Z,91.11
2022-09-21T23:31:26.804Z,91.13
2022-09-21T23:33:56.549Z,91.34
2022-09-21T23:36:26.565Z,91.45
2022-09-21T23:38:55.335Z,91.05
2022-09-21T23:41:25.581Z,91.32
2022-09-21T23:43:55.629Z,91.62
2022-09-21T23:46:29.574Z,91.51
2022-09-21T23:48:58.241Z,91.79
2022-09-21T23:51:26.885Z,91.89
2022-09-21T23:53:55.448Z,91.70
2022-09-21T23:56:24.672Z,91.83
2022-09-21T23:58:54.700Z,92.39
